createdAt,value
2018-07-30T00:01:06.714Z,20.60
2018-07-30T00:03:35.349Z,20.60
2018-07-30T00:06:03.302Z,20.60
2018-07-30T00:08:32.190Z,20.70
2018-07-30T00:15:56.309Z,20.80
2018-07-30T00:18:24.295Z,20.80
2018-07-30T00:20:52.657Z,20.80
2018-07-30T00:25:48.471Z,20.80
2018-07-30T00:28:16.965Z,20.70
2018-07-30T00:30:44.842Z,20.70
2018-07-30T00:33:12.807Z,20.70
2018-07-30T00:35:40.677Z,20.70
2018-07-30T00:40:37.081Z,20.70
2018-07-30T00:43:04.950Z,20.70
2018-07-30T00:45:33.497Z,20.70
2018-07-30T00:50:29.094Z,20.60
2018-07-30T00:52:57.681Z,20.50
2018-07-30T00:55:25.550Z,20.40
2018-07-30T00:57:54.162Z,20.40
2018-07-30T01:02:49.722Z,20.40
2018-07-30T01:05:17.691Z,20.50
2018-07-30T01:07:45.611Z,20.40
2018-07-30T01:10:13.476Z,20.30
2018-07-30T01:12:41.343Z,20.30
2018-07-30T01:15:09.402Z,20.30
2018-07-30T01:17:37.599Z,20.30
2018-07-30T01:22:33.432Z,20.30
2018-07-30T01:25:01.383Z,20.20
2018-07-30T01:27:29.274Z,20.20
2018-07-30T01:32:24.859Z,20.20
2018-07-30T01:34:53.314Z,20.10
2018-07-30T01:37:21.877Z,20.10
2018-07-30T01:42:17.574Z,20.10
2018-07-30T01:44:45.509Z,20.00
2018-07-30T01:47:13.414Z,19.90
2018-07-30T01:49:41.363Z,19.90
2018-07-30T01:52:09.302Z,20.00
2018-07-30T01:54:37.149Z,19.90
2018-07-30T01:59:32.733Z,19.80
2018-07-30T02:02:00.609Z,19.80
2018-07-30T02:04:28.553Z,19.80
2018-07-30T02:06:56.414Z,19.80
2018-07-30T02:09:24.293Z,19.80
2018-07-30T02:11:52.187Z,19.80
2018-07-30T02:14:20.173Z,19.60
2018-07-30T02:21:44.130Z,19.60
2018-07-30T02:24:12.064Z,19.50
2018-07-30T02:26:40.073Z,19.50
2018-07-30T02:29:08.702Z,19.40
2018-07-30T02:31:38.367Z,19.40
2018-07-30T02:34:07.164Z,19.40
2018-07-30T02:36:35.120Z,19.50
2018-07-30T02:39:03.162Z,19.40
2018-07-30T02:43:59.531Z,19.50
2018-07-30T02:46:27.453Z,19.50
2018-07-30T02:48:55.408Z,19.40
2018-07-30T02:51:23.350Z,19.40
2018-07-30T02:53:51.232Z,19.30
2018-07-30T02:56:19.140Z,19.30
2018-07-30T02:58:47.635Z,19.30
2018-07-30T03:03:43.275Z,19.40
2018-07-30T03:06:11.684Z,19.40
2018-07-30T03:08:39.602Z,19.30
2018-07-30T03:11:07.516Z,19.30
2018-07-30T03:13:35.369Z,19.20
2018-07-30T03:16:03.961Z,19.10
2018-07-30T03:18:31.980Z,19.10
2018-07-30T03:20:59.845Z,19.10
2018-07-30T03:23:27.719Z,19.10
2018-07-30T03:25:56.302Z,19.10
2018-07-30T03:30:52.734Z,19.00
2018-07-30T03:33:20.617Z,18.90
2018-07-30T03:38:16.232Z,18.90
2018-07-30T03:40:44.108Z,18.90
2018-07-30T03:43:12.715Z,18.90
2018-07-30T03:48:08.551Z,18.90
2018-07-30T03:50:36.431Z,18.90
2018-07-30T03:58:00.264Z,18.70
2018-07-30T04:00:28.320Z,18.70
2018-07-30T04:02:56.216Z,18.70
2018-07-30T04:05:24.167Z,18.80
2018-07-30T04:07:52.250Z,18.90
2018-07-30T04:10:20.183Z,18.90
2018-07-30T04:12:48.353Z,19.00
2018-07-30T04:15:16.380Z,19.00
2018-07-30T04:17:44.811Z,19.10
2018-07-30T04:20:13.489Z,19.10
2018-07-30T04:22:41.952Z,19.20
2018-07-30T04:25:09.913Z,19.30
2018-07-30T04:32:33.391Z,19.30
2018-07-30T04:37:29.637Z,19.20
2018-07-30T04:39:57.503Z,19.20
2018-07-30T04:42:25.446Z,19.20
2018-07-30T04:44:53.296Z,19.20
2018-07-30T04:47:21.291Z,19.30
2018-07-30T04:49:49.191Z,19.30
2018-07-30T04:52:17.085Z,19.30
2018-07-30T04:57:12.733Z,19.40
2018-07-30T04:59:41.290Z,19.40
2018-07-30T05:02:09.222Z,19.50
2018-07-30T05:04:37.998Z,19.70
2018-07-30T05:07:05.852Z,19.80
2018-07-30T05:09:33.756Z,19.80
2018-07-30T05:12:01.682Z,19.90
2018-07-30T05:14:29.640Z,20.00
2018-07-30T05:16:57.661Z,20.10
2018-07-30T05:19:25.720Z,20.20
2018-07-30T05:21:53.623Z,20.30
2018-07-30T05:24:21.558Z,20.30
2018-07-30T05:26:49.794Z,20.50
2018-07-30T05:29:17.691Z,20.70
2018-07-30T05:31:45.680Z,20.80
2018-07-30T05:34:13.589Z,20.90
2018-07-30T05:36:42.913Z,21.00
2018-07-30T05:39:11.498Z,21.20
2018-07-30T05:41:39.754Z,21.50
2018-07-30T05:49:04.692Z,22.40
2018-07-30T05:51:32.736Z,22.80
2018-07-30T05:54:00.655Z,23.20
2018-07-30T05:56:28.542Z,23.60
2018-07-30T05:58:56.427Z,23.80
2018-07-30T06:01:24.365Z,24.10
2018-07-30T06:03:53.275Z,24.50
2018-07-30T06:06:21.255Z,24.70
2018-07-30T06:13:44.833Z,25.20
2018-07-30T06:16:12.813Z,25.30
2018-07-30T06:21:08.593Z,25.80
2018-07-30T06:23:38.209Z,25.70
2018-07-30T06:26:07.061Z,25.80
2018-07-30T06:28:34.991Z,25.80
2018-07-30T06:31:02.906Z,25.90
2018-07-30T06:33:31.643Z,26.00
2018-07-30T06:36:00.717Z,26.10
2018-07-30T06:38:29.413Z,26.30
2018-07-30T06:40:58.486Z,26.60
2018-07-30T06:43:26.538Z,26.60
2018-07-30T06:45:54.515Z,26.70
2018-07-30T06:48:22.673Z,26.70
2018-07-30T06:55:46.930Z,27.00
2018-07-30T06:58:14.857Z,27.20
2018-07-30T07:00:42.768Z,27.50
2018-07-30T07:03:12.185Z,27.50
2018-07-30T07:05:40.721Z,27.70
2018-07-30T07:10:36.514Z,27.90
2018-07-30T07:13:04.557Z,28.10
2018-07-30T07:15:32.466Z,28.30
2018-07-30T07:18:00.934Z,28.50
2018-07-30T07:20:28.837Z,28.60
2018-07-30T07:22:57.447Z,28.90
2018-07-30T07:27:53.077Z,28.80
2018-07-30T07:30:21.118Z,29.00
2018-07-30T07:32:49.076Z,29.40
2018-07-30T07:35:16.981Z,29.40
2018-07-30T07:42:46.537Z,29.80
2018-07-30T07:45:14.505Z,29.90
2018-07-30T07:47:42.438Z,29.80
2018-07-30T07:50:11.647Z,29.60
2018-07-30T07:52:39.505Z,29.50
2018-07-30T07:55:07.395Z,29.40
2018-07-30T07:57:35.348Z,29.30
2018-07-30T08:00:05.338Z,29.30
2018-07-30T08:02:33.236Z,29.30
2018-07-30T08:05:01.161Z,29.30
2018-07-30T08:07:30.001Z,29.20
2018-07-30T08:09:58.049Z,29.30
2018-07-30T08:14:53.881Z,29.30
2018-07-30T08:17:21.793Z,29.20
2018-07-30T08:19:49.710Z,29.40
2018-07-30T08:22:18.644Z,29.40
2018-07-30T08:24:46.630Z,29.40
2018-07-30T08:27:14.560Z,29.50
2018-07-30T08:29:42.528Z,29.50
2018-07-30T08:32:10.449Z,29.50
2018-07-30T08:34:38.701Z,29.60
2018-07-30T08:37:06.748Z,29.60
2018-07-30T08:44:30.162Z,29.60
2018-07-30T08:46:58.098Z,29.60
2018-07-30T08:49:26.047Z,29.70
2018-07-30T08:51:53.985Z,29.80
2018-07-30T08:54:21.917Z,29.80
2018-07-30T08:56:49.832Z,29.90
2018-07-30T08:59:17.826Z,29.90
2018-07-30T09:04:13.846Z,30.00
2018-07-30T09:06:41.812Z,29.90
2018-07-30T09:09:10.464Z,29.90
2018-07-30T09:11:38.945Z,30.00
2018-07-30T09:16:35.034Z,30.00
2018-07-30T09:19:03.723Z,30.00
2018-07-30T09:21:31.654Z,30.00
2018-07-30T09:23:59.715Z,30.10
2018-07-30T09:26:28.673Z,30.20
2018-07-30T09:28:56.599Z,30.20
2018-07-30T09:31:24.559Z,30.10
2018-07-30T09:33:53.083Z,30.30
2018-07-30T09:36:23.372Z,30.20
2018-07-30T09:38:51.709Z,30.40
2018-07-30T09:41:20.316Z,30.30
2018-07-30T09:43:48.606Z,30.40
2018-07-30T09:48:44.551Z,30.40
2018-07-30T09:53:41.056Z,30.60
2018-07-30T09:56:09.342Z,30.80
2018-07-30T09:58:37.547Z,30.80
2018-07-30T10:01:13.600Z,30.70
2018-07-30T10:06:09.977Z,30.60
2018-07-30T10:08:38.738Z,30.50
2018-07-30T10:11:06.670Z,30.40
2018-07-30T10:13:35.015Z,30.20
2018-07-30T10:16:02.931Z,30.20
2018-07-30T10:18:31.780Z,30.20
2018-07-30T10:20:59.768Z,30.20
2018-07-30T10:23:27.706Z,30.10
2018-07-30T10:25:55.619Z,30.00
2018-07-30T10:28:23.569Z,30.00
2018-07-30T10:30:52.877Z,30.00
2018-07-30T10:33:20.679Z,29.80
2018-07-30T10:38:16.769Z,29.70
2018-07-30T10:40:45.847Z,29.70
2018-07-30T10:43:13.907Z,29.60
2018-07-30T10:45:41.920Z,29.60
2018-07-30T10:48:09.861Z,29.60
2018-07-30T10:50:37.730Z,29.50
2018-07-30T10:53:10.199Z,29.40
2018-07-30T10:55:38.180Z,29.20
2018-07-30T10:58:06.429Z,29.20
2018-07-30T11:00:34.410Z,29.20
2018-07-30T11:03:02.319Z,29.00
2018-07-30T11:05:30.230Z,29.10
2018-07-30T11:10:26.265Z,28.90
2018-07-30T11:12:54.222Z,28.90
2018-07-30T11:15:22.140Z,28.90
2018-07-30T11:17:50.210Z,28.90
2018-07-30T11:20:18.970Z,28.90
2018-07-30T11:25:14.675Z,28.90
2018-07-30T11:27:42.624Z,28.80
2018-07-30T11:30:11.146Z,28.80
2018-07-30T11:32:39.113Z,28.80
2018-07-30T11:37:34.826Z,28.70
2018-07-30T11:40:03.094Z,28.70
2018-07-30T11:42:31.024Z,28.60
2018-07-30T11:44:59.279Z,28.40
2018-07-30T11:49:55.691Z,28.10
2018-07-30T11:52:24.120Z,28.00
2018-07-30T11:54:52.055Z,27.90
2018-07-30T11:57:20.887Z,27.80
2018-07-30T11:59:49.734Z,27.70
2018-07-30T12:02:17.702Z,27.70
2018-07-30T12:04:45.696Z,27.60
2018-07-30T12:12:09.978Z,27.30
2018-07-30T12:14:37.956Z,27.20
2018-07-30T12:17:05.884Z,27.10
2018-07-30T12:19:34.379Z,27.00
2018-07-30T12:22:02.732Z,26.80
2018-07-30T12:24:31.312Z,26.80
2018-07-30T12:26:59.270Z,26.70
2018-07-30T12:31:54.999Z,26.80
2018-07-30T12:34:23.449Z,26.80
2018-07-30T12:36:51.361Z,26.70
2018-07-30T12:39:19.253Z,26.60
2018-07-30T12:41:47.169Z,26.50
2018-07-30T12:44:15.485Z,26.50
2018-07-30T12:46:43.949Z,26.70
2018-07-30T12:51:40.911Z,26.70
2018-07-30T12:56:36.711Z,26.70
2018-07-30T12:59:04.614Z,26.70
2018-07-30T13:01:32.504Z,26.80
2018-07-30T13:04:00.395Z,26.70
2018-07-30T13:06:28.327Z,26.70
2018-07-30T13:08:56.930Z,26.90
2018-07-30T13:11:24.845Z,27.00
2018-07-30T13:13:52.765Z,26.90
2018-07-30T13:16:22.138Z,27.00
2018-07-30T13:23:45.942Z,27.30
2018-07-30T13:28:41.547Z,27.40
2018-07-30T13:33:37.967Z,27.50
2018-07-30T13:36:06.935Z,27.60
2018-07-30T13:38:34.855Z,27.60
2018-07-30T13:41:02.799Z,27.70
2018-07-30T13:43:30.931Z,27.70
2018-07-30T13:45:59.516Z,27.80
2018-07-30T13:48:27.896Z,27.80
2018-07-30T13:50:55.943Z,27.90
2018-07-30T13:53:23.857Z,28.10
2018-07-30T13:55:51.774Z,28.20
2018-07-30T13:58:19.820Z,28.20
2018-07-30T14:00:48.020Z,28.20
2018-07-30T14:03:15.906Z,28.30
2018-07-30T14:13:07.221Z,28.50
2018-07-30T14:15:35.872Z,28.50
2018-07-30T14:18:03.873Z,28.50
2018-07-30T14:20:31.788Z,28.60
2018-07-30T14:25:28.271Z,28.60
2018-07-30T14:30:24.768Z,28.60
2018-07-30T14:32:53.093Z,28.60
2018-07-30T14:35:21.035Z,28.60
2018-07-30T14:40:16.736Z,28.70
2018-07-30T14:42:45.241Z,28.80
2018-07-30T14:45:13.197Z,28.90
2018-07-30T14:47:41.872Z,29.00
2018-07-30T14:50:10.929Z,29.10
2018-07-30T14:52:40.229Z,29.30
2018-07-30T14:55:08.270Z,29.40
2018-07-30T14:57:36.331Z,29.50
2018-07-30T15:00:05.910Z,29.50
2018-07-30T15:02:33.820Z,29.50
2018-07-30T15:05:01.726Z,29.50
2018-07-30T15:07:30.798Z,29.60
2018-07-30T15:17:23.080Z,30.20
2018-07-30T15:22:19.425Z,30.40
2018-07-30T15:24:47.435Z,30.50
2018-07-30T15:27:15.400Z,30.70
2018-07-30T15:29:43.445Z,30.70
2018-07-30T15:34:39.387Z,30.90
2018-07-30T15:37:07.355Z,30.80
2018-07-30T15:39:35.290Z,30.90
2018-07-30T15:42:03.301Z,30.80
2018-07-30T15:44:31.226Z,30.70
2018-07-30T15:46:59.155Z,30.60
2018-07-30T15:49:28.055Z,30.70
2018-07-30T15:51:55.999Z,30.60
2018-07-30T15:54:23.914Z,30.70
2018-07-30T15:56:51.980Z,30.60
2018-07-30T15:59:20.076Z,30.60
2018-07-30T16:06:43.547Z,30.60
2018-07-30T16:09:11.516Z,30.50
2018-07-30T16:11:39.482Z,30.40
2018-07-30T16:14:07.428Z,30.40
2018-07-30T16:16:36.008Z,30.40
2018-07-30T16:19:03.949Z,30.50
2018-07-30T16:21:32.244Z,30.40
2018-07-30T16:24:01.135Z,30.40
2018-07-30T16:26:29.114Z,30.40
2018-07-30T16:28:57.067Z,30.50
2018-07-30T16:33:52.831Z,30.60
2018-07-30T16:36:20.747Z,30.50
2018-07-30T16:38:49.197Z,30.50
2018-07-30T16:41:17.097Z,30.30
2018-07-30T16:43:45.390Z,30.20
2018-07-30T16:51:10.835Z,29.90
2018-07-30T16:56:06.527Z,29.70
2018-07-30T16:58:34.455Z,29.50
2018-07-30T17:01:02.698Z,29.50
2018-07-30T17:03:30.691Z,29.40
2018-07-30T17:05:59.464Z,29.30
2018-07-30T17:13:23.878Z,29.10
2018-07-30T17:20:47.364Z,29.00
2018-07-30T17:23:15.674Z,29.00
2018-07-30T17:28:12.077Z,28.90
2018-07-30T17:30:40.684Z,28.90
2018-07-30T17:38:06.349Z,28.90
2018-07-30T17:40:34.247Z,28.90
2018-07-30T17:43:02.175Z,28.90
2018-07-30T17:45:30.055Z,28.90
2018-07-30T17:47:57.967Z,28.90
2018-07-30T17:50:26.308Z,28.90
2018-07-30T17:57:49.822Z,28.90
2018-07-30T18:00:17.737Z,28.80
2018-07-30T18:02:45.696Z,28.80
2018-07-30T18:05:17.396Z,28.80
2018-07-30T18:10:14.178Z,28.70
2018-07-30T18:12:42.087Z,28.60
2018-07-30T18:15:10.742Z,28.50
2018-07-30T18:17:38.675Z,28.50
2018-07-30T18:22:35.522Z,28.40
2018-07-30T18:25:03.566Z,28.30
2018-07-30T18:27:31.523Z,28.20
2018-07-30T18:30:00.055Z,28.00
2018-07-30T18:42:19.763Z,27.20
2018-07-30T18:44:47.710Z,27.00
2018-07-30T18:47:15.683Z,27.00
2018-07-30T18:49:43.594Z,26.90
2018-07-30T18:54:39.333Z,26.60
2018-07-30T18:59:35.244Z,26.30
2018-07-30T19:02:03.584Z,26.10
2018-07-30T19:04:31.561Z,26.10
2018-07-30T19:07:00.177Z,26.00
2018-07-30T19:09:28.058Z,26.00
2018-07-30T19:11:55.878Z,25.90
2018-07-30T19:14:24.365Z,25.80
2018-07-30T19:16:53.764Z,25.60
2018-07-30T19:19:22.843Z,25.50
2018-07-30T19:24:19.224Z,25.30
2018-07-30T19:26:47.131Z,25.30
2018-07-30T19:29:15.024Z,25.20
2018-07-30T19:31:42.973Z,25.10
2018-07-30T19:34:10.880Z,25.00
2018-07-30T19:36:38.861Z,25.00
2018-07-30T19:39:09.680Z,25.00
2018-07-30T19:41:38.067Z,24.90
2018-07-30T19:44:06.328Z,24.70
2018-07-30T19:49:02.828Z,24.40
2018-07-30T19:51:30.832Z,24.40
2018-07-30T19:53:58.800Z,24.30
2018-07-30T19:58:55.637Z,24.30
2018-07-30T20:01:23.411Z,24.30
2018-07-30T20:06:19.841Z,24.10
2018-07-30T20:08:48.345Z,24.00
2018-07-30T20:11:16.414Z,24.00
2018-07-30T20:13:44.297Z,23.90
2018-07-30T20:18:40.560Z,23.70
2018-07-30T20:21:08.458Z,23.70
2018-07-30T20:23:36.359Z,23.60
2018-07-30T20:26:04.341Z,23.50
2018-07-30T20:28:32.254Z,23.40
2018-07-30T20:31:00.233Z,23.30
2018-07-30T20:33:28.890Z,23.30
2018-07-30T20:35:56.851Z,23.30
2018-07-30T20:40:52.599Z,23.20
2018-07-30T20:43:20.507Z,23.10
2018-07-30T20:45:49.370Z,23.10
2018-07-30T20:48:17.297Z,23.00
2018-07-30T20:50:46.177Z,22.90
2018-07-30T20:53:14.134Z,22.90
2018-07-30T20:55:42.036Z,22.80
2018-07-30T20:58:10.234Z,22.70
2018-07-30T21:03:06.669Z,22.60
2018-07-30T21:05:40.338Z,22.60
2018-07-30T21:08:08.293Z,22.50
2018-07-30T21:10:36.200Z,22.50
2018-07-30T21:13:04.086Z,22.50
2018-07-30T21:15:32.005Z,22.40
2018-07-30T21:18:00.831Z,22.50
2018-07-30T21:20:28.780Z,22.40
2018-07-30T21:22:56.703Z,22.40
2018-07-30T21:25:24.691Z,22.40
2018-07-30T21:27:52.581Z,22.40
2018-07-30T21:30:20.535Z,22.30
2018-07-30T21:32:49.107Z,22.30
2018-07-30T21:35:16.995Z,22.20
2018-07-30T21:37:45.624Z,22.10
2018-07-30T21:42:41.408Z,22.10
2018-07-30T21:45:09.336Z,22.00
2018-07-30T21:52:34.036Z,21.90
2018-07-30T21:55:02.543Z,21.90
2018-07-30T21:57:30.995Z,21.90
2018-07-30T22:02:27.120Z,21.90
2018-07-30T22:04:55.314Z,21.80
2018-07-30T22:12:19.883Z,21.70
2018-07-30T22:14:48.255Z,21.60
2018-07-30T22:17:16.834Z,21.60
2018-07-30T22:19:44.755Z,21.50
2018-07-30T22:22:12.708Z,21.40
2018-07-30T22:24:40.627Z,21.30
2018-07-30T22:29:36.890Z,21.40
2018-07-30T22:32:04.925Z,21.30
2018-07-30T22:37:00.595Z,21.30
2018-07-30T22:39:28.464Z,21.30
2018-07-30T22:41:56.383Z,21.20
2018-07-30T22:44:24.935Z,21.20
2018-07-30T22:46:52.917Z,21.20
2018-07-30T22:49:20.865Z,21.10
2018-07-30T22:51:48.802Z,21.10
2018-07-30T22:59:12.923Z,21.00
2018-07-30T23:01:40.846Z,20.70
2018-07-30T23:04:08.750Z,20.80
2018-07-30T23:06:37.349Z,20.70
2018-07-30T23:09:06.553Z,20.70
2018-07-30T23:11:35.057Z,20.60
2018-07-30T23:14:02.956Z,20.60
2018-07-30T23:18:58.558Z,20.60
2018-07-30T23:21:32.710Z,20.70
2018-07-30T23:24:01.913Z,20.70
2018-07-30T23:26:29.820Z,20.70
2018-07-30T23:28:58.467Z,20.70
2018-07-30T23:31:26.337Z,20.70
2018-07-30T23:33:54.313Z,20.70
2018-07-30T23:38:50.067Z,20.60
2018-07-30T23:41:18.703Z,20.60
2018-07-30T23:43:46.648Z,20.60
2018-07-30T23:48:42.351Z,20.70
2018-07-30T23:53:39.417Z,20.60
2018-07-30T23:56:08.027Z,20.50
2018-07-30T23:58:35.934Z,20.40
